Time;durP1;ratioP1;P1;durP2;ratioP2;P2;SDS_P1;SDS_P2;PMS_P1;PMS_P2;Temp;Humidity;BMP_temperature;BMP_pressure;BME280_temperature;BME280_humidity;BME280_pressure;Samples;Min_cycle;Max_cycle;Signal;HPM_P1;HPM_P2
2020/12/19 00:01:05;;;;;;;32.42;14.30;;;;;;;;;;5075084;28;20063;-71
2020/12/19 00:03:31;;;;;;;28.55;14.15;;;;;;;;;;5075015;28;20016;-71
2020/12/19 00:05:57;;;;;;;28.27;13.00;;;;;;;;;;5073707;28;20104;-71
2020/12/19 00:08:23;;;;;;;28.80;12.95;;;;;;;;;;5074794;28;20095;-71
2020/12/19 00:10:49;;;;;;;38.05;16.13;;;;;;;;;;5073408;28;20059;-71
2020/12/19 00:13:15;;;;;;;27.10;13.63;;;;;;;;;;5073707;28;20040;-71
2020/12/19 00:15:42;;;;;;;34.33;16.30;;;;;;;;;;5074259;28;20086;-72
2020/12/19 00:18:07;;;;;;;36.88;16.30;;;;;;;;;;5073721;28;20021;-71
2020/12/19 00:20:33;;;;;;;26.58;13.18;;;;;;;;;;5056777;28;20032;-71
2020/12/19 00:22:58;;;;;;;34.35;15.65;;;;;;;;;;5074553;28;20012;-71
2020/12/19 00:25:23;;;;;;;32.50;16.55;;;;;;;;;;5074840;28;20111;-71
2020/12/19 00:27:49;;;;;;;23.70;11.68;;;;;;;;;;5056554;28;20358;-71
2020/12/19 00:30:14;;;;;;;30.05;14.23;;;;;;;;;;5074720;28;20027;-70
2020/12/19 00:32:40;;;;;;;28.58;14.80;;;;;;;;;;5073255;28;20013;-72
2020/12/19 00:35:06;;;;;;;30.50;14.18;;;;;;;;;;5073288;28;20016;-71
2020/12/19 00:37:31;;;;;;;30.00;14.50;;;;;;;;;;5072957;28;20056;-71
2020/12/19 00:39:57;;;;;;;33.60;14.20;;;;;;;;;;5072928;28;20034;-71
2020/12/19 00:42:22;;;;;;;36.42;19.42;;;;;;;;;;5073272;28;20234;-71
2020/12/19 00:44:48;;;;;;;38.40;20.40;;;;;;;;;;5073868;28;20438;-71
2020/12/19 00:47:13;;;;;;;40.25;21.35;;;;;;;;;;5074726;28;20024;-71
2020/12/19 00:49:38;;;;;;;29.27;15.73;;;;;;;;;;5074490;28;20016;-72
2020/12/19 00:52:04;;;;;;;32.97;16.83;;;;;;;;;;5073772;28;20358;-72
2020/12/19 00:54:29;;;;;;;28.40;13.63;;;;;;;;;;5072940;28;20542;-72
2020/12/19 00:56:55;;;;;;;26.45;13.13;;;;;;;;;;5073937;28;20058;-72
2020/12/19 00:59:20;;;;;;;27.15;12.80;;;;;;;;;;5074110;28;20052;-71
2020/12/19 01:01:46;;;;;;;28.30;13.32;;;;;;;;;;5056014;28;20019;-71
2020/12/19 01:04:11;;;;;;;23.55;12.10;;;;;;;;;;5073803;28;20013;-71
2020/12/19 01:06:37;;;;;;;23.90;11.93;;;;;;;;;;5073862;28;20048;-72
2020/12/19 01:09:04;;;;;;;24.83;12.98;;;;;;;;;;5073679;28;20099;-71
2020/12/19 01:11:30;;;;;;;25.92;12.98;;;;;;;;;;5072758;28;20067;-71
2020/12/19 01:13:55;;;;;;;27.08;12.73;;;;;;;;;;5073659;28;20496;-71
2020/12/19 01:16:22;;;;;;;28.25;14.57;;;;;;;;;;5071627;28;20027;-71
2020/12/19 01:18:49;;;;;;;24.77;12.95;;;;;;;;;;5073523;28;20392;-71
2020/12/19 01:21:16;;;;;;;29.48;14.52;;;;;;;;;;5072655;28;20124;-70
2020/12/19 01:23:41;;;;;;;27.70;13.23;;;;;;;;;;5072363;28;20020;-72
2020/12/19 01:26:07;;;;;;;29.63;13.82;;;;;;;;;;5073415;28;20024;-71
2020/12/19 01:28:33;;;;;;;27.60;12.68;;;;;;;;;;5072164;28;20020;-71
2020/12/19 01:31:02;;;;;;;27.55;13.57;;;;;;;;;;5072081;28;20469;-71
2020/12/19 01:33:28;;;;;;;29.27;14.80;;;;;;;;;;5073431;28;20024;-71
2020/12/19 01:35:53;;;;;;;33.42;14.80;;;;;;;;;;5072111;28;20025;-72
2020/12/19 01:38:19;;;;;;;26.70;14.40;;;;;;;;;;5072822;28;20053;-71
2020/12/19 01:40:48;;;;;;;31.95;14.63;;;;;;;;;;5073054;28;20048;-72
2020/12/19 01:43:13;;;;;;;50.03;20.38;;;;;;;;;;5072002;28;20024;-71
2020/12/19 01:45:39;;;;;;;54.92;23.50;;;;;;;;;;5072357;28;20095;-72
2020/12/19 01:48:07;;;;;;;41.75;17.77;;;;;;;;;;5072913;28;20041;-71
2020/12/19 01:50:32;;;;;;;35.92;17.48;;;;;;;;;;5071964;28;20047;-72
2020/12/19 01:52:58;;;;;;;29.55;14.13;;;;;;;;;;5072913;28;20044;-73
2020/12/19 01:55:23;;;;;;;28.40;14.02;;;;;;;;;;5073048;28;20052;-72
2020/12/19 01:57:48;;;;;;;26.38;14.23;;;;;;;;;;5072704;28;20052;-72
2020/12/19 02:00:14;;;;;;;30.95;16.00;;;;;;;;;;5072978;28;20020;-72
2020/12/19 02:02:39;;;;;;;32.05;15.95;;;;;;;;;;5073004;28;20066;-72
2020/12/19 02:05:05;;;;;;;28.00;15.23;;;;;;;;;;5072654;28;20040;-71
2020/12/19 02:07:30;;;;;;;33.60;16.20;;;;;;;;;;5071787;28;20111;-71
2020/12/19 02:09:56;;;;;;;29.50;15.30;;;;;;;;;;5072685;28;20055;-71
2020/12/19 02:12:21;;;;;;;28.42;14.73;;;;;;;;;;5073002;28;20110;-71
2020/12/19 02:14:47;;;;;;;28.00;14.43;;;;;;;;;;5070554;28;20020;-71
2020/12/19 02:17:13;;;;;;;32.88;15.43;;;;;;;;;;5054697;28;20489;-71
2020/12/19 02:19:39;;;;;;;31.40;16.15;;;;;;;;;;5072546;28;20477;-73
2020/12/19 02:22:05;;;;;;;27.58;13.77;;;;;;;;;;5054388;28;20021;-71
2020/12/19 02:24:31;;;;;;;30.38;15.25;;;;;;;;;;5072701;28;20020;-71
2020/12/19 02:26:57;;;;;;;32.85;15.57;;;;;;;;;;5072780;28;20088;-72
2020/12/19 02:29:24;;;;;;;30.33;14.93;;;;;;;;;;5072560;28;20023;-71
2020/12/19 02:31:49;;;;;;;27.80;13.00;;;;;;;;;;5054158;28;20025;-71
2020/12/19 02:34:15;;;;;;;32.70;13.75;;;;;;;;;;5054359;28;20027;-71
2020/12/19 02:36:41;;;;;;;34.70;16.05;;;;;;;;;;5072290;28;20182;-73
2020/12/19 02:39:07;;;;;;;33.03;15.05;;;;;;;;;;5054408;28;20364;-71
2020/12/19 02:41:42;;;;;;;36.95;16.63;;;;;;;;;;5054296;28;20013;-71
2020/12/19 02:44:08;;;;;;;38.25;15.23;;;;;;;;;;5072197;28;20027;-71
2020/12/19 02:46:34;;;;;;;35.58;16.40;;;;;;;;;;5071987;28;20021;-72
2020/12/19 02:49:00;;;;;;;32.03;15.27;;;;;;;;;;5070841;28;20020;-72
2020/12/19 02:51:25;;;;;;;38.08;16.48;;;;;;;;;;5072301;28;20039;-72
2020/12/19 02:53:51;;;;;;;34.45;15.77;;;;;;;;;;5071003;28;20015;-73
2020/12/19 02:56:16;;;;;;;39.22;18.73;;;;;;;;;;5072059;28;20017;-72
2020/12/19 02:58:42;;;;;;;34.65;17.00;;;;;;;;;;5072158;28;20025;-72
2020/12/19 03:01:07;;;;;;;38.30;17.15;;;;;;;;;;5071035;28;20070;-71
2020/12/19 03:03:32;;;;;;;35.55;17.35;;;;;;;;;;5071937;28;20028;-71
2020/12/19 03:05:58;;;;;;;38.22;16.85;;;;;;;;;;5070803;28;20021;-71
2020/12/19 03:08:23;;;;;;;37.25;16.58;;;;;;;;;;5072188;28;20027;-71
2020/12/19 03:10:49;;;;;;;33.05;15.45;;;;;;;;;;5072026;28;20012;-71
2020/12/19 03:13:14;;;;;;;36.80;16.92;;;;;;;;;;5072135;28;20021;-71
2020/12/19 03:15:39;;;;;;;39.13;16.17;;;;;;;;;;5071419;28;20106;-72
2020/12/19 03:18:05;;;;;;;34.83;15.93;;;;;;;;;;5070516;28;20405;-71
2020/12/19 03:20:30;;;;;;;37.08;16.10;;;;;;;;;;5070798;28;20017;-71
2020/12/19 03:22:56;;;;;;;38.42;16.30;;;;;;;;;;5070552;28;20013;-71
2020/12/19 03:25:21;;;;;;;38.33;16.33;;;;;;;;;;5072007;28;20549;-71
2020/12/19 03:27:46;;;;;;;34.58;15.77;;;;;;;;;;5071799;28;20381;-71
2020/12/19 03:30:12;;;;;;;36.42;18.05;;;;;;;;;;5071792;28;20095;-71
2020/12/19 03:32:37;;;;;;;34.10;16.33;;;;;;;;;;5070594;28;20020;-73
2020/12/19 03:35:03;;;;;;;33.78;16.45;;;;;;;;;;5071710;28;20043;-72
2020/12/19 03:37:29;;;;;;;30.85;15.43;;;;;;;;;;5070454;28;20076;-72
2020/12/19 03:39:54;;;;;;;38.22;17.30;;;;;;;;;;5053725;28;20330;-71
2020/12/19 03:42:19;;;;;;;36.05;16.90;;;;;;;;;;5071695;28;20504;-71
2020/12/19 03:44:45;;;;;;;42.13;18.27;;;;;;;;;;5072934;28;20070;-72
2020/12/19 03:47:10;;;;;;;37.60;16.13;;;;;;;;;;5057475;28;20119;-71
2020/12/19 03:49:35;;;;;;;36.97;16.70;;;;;;;;;;5075552;28;20094;-73
2020/12/19 03:52:01;;;;;;;36.75;16.38;;;;;;;;;;5075006;28;20465;-72
2020/12/19 03:54:26;;;;;;;45.50;19.27;;;;;;;;;;5075321;28;20012;-73
2020/12/19 03:56:52;;;;;;;36.47;17.20;;;;;;;;;;5073838;28;20432;-72
2020/12/19 03:59:17;;;;;;;38.40;17.33;;;;;;;;;;5075209;28;20028;-71
2020/12/19 04:01:43;;;;;;;38.55;18.13;;;;;;;;;;5075288;28;20143;-72
2020/12/19 04:04:08;;;;;;;40.80;16.95;;;;;;;;;;5074842;28;20024;-71
2020/12/19 04:06:34;;;;;;;45.28;18.95;;;;;;;;;;5074888;28;20020;-71
2020/12/19 04:08:59;;;;;;;39.03;16.90;;;;;;;;;;5074859;28;20453;-71
2020/12/19 04:11:24;;;;;;;37.35;17.27;;;;;;;;;;5073782;28;20096;-71
2020/12/19 04:13:50;;;;;;;39.80;18.50;;;;;;;;;;5074848;28;20104;-71
2020/12/19 04:16:15;;;;;;;41.60;17.58;;;;;;;;;;5073885;28;20028;-71
2020/12/19 04:18:41;;;;;;;37.60;17.05;;;;;;;;;;5073545;28;20128;-72
2020/12/19 04:21:07;;;;;;;38.80;17.48;;;;;;;;;;5074565;28;20099;-71
2020/12/19 04:23:32;;;;;;;37.67;16.15;;;;;;;;;;5056771;28;20487;-71
2020/12/19 04:25:59;;;;;;;38.92;17.25;;;;;;;;;;5074343;28;20021;-71
2020/12/19 04:28:24;;;;;;;36.15;17.75;;;;;;;;;;5073449;28;20052;-71
2020/12/19 04:30:50;;;;;;;36.50;16.45;;;;;;;;;;5073296;28;20051;-71
2020/12/19 04:33:15;;;;;;;31.08;15.77;;;;;;;;;;5074506;28;20495;-71
2020/12/19 04:35:40;;;;;;;43.38;16.75;;;;;;;;;;5074498;28;20025;-72
2020/12/19 04:38:06;;;;;;;40.97;17.52;;;;;;;;;;5074125;28;20044;-71
2020/12/19 04:40:31;;;;;;;38.55;16.45;;;;;;;;;;5073421;28;20115;-71
2020/12/19 04:42:57;;;;;;;37.63;17.50;;;;;;;;;;5074635;28;20024;-71
2020/12/19 04:45:22;;;;;;;35.97;18.00;;;;;;;;;;5072535;28;20389;-71
2020/12/19 04:47:48;;;;;;;34.53;16.00;;;;;;;;;;5074113;28;20143;-71
2020/12/19 04:50:14;;;;;;;36.05;16.92;;;;;;;;;;5073908;28;20468;-71
2020/12/19 04:52:40;;;;;;;41.33;17.33;;;;;;;;;;5072830;28;20024;-73
2020/12/19 04:55:06;;;;;;;36.30;16.98;;;;;;;;;;5074171;28;20373;-72
2020/12/19 04:57:31;;;;;;;49.92;20.17;;;;;;;;;;5072899;28;20037;-72
2020/12/19 04:59:57;;;;;;;37.75;17.35;;;;;;;;;;5073892;28;20016;-71
2020/12/19 05:02:22;;;;;;;44.17;17.45;;;;;;;;;;5073035;28;20025;-71
2020/12/19 05:04:49;;;;;;;35.35;15.65;;;;;;;;;;5073981;28;20024;-71
2020/12/19 05:07:15;;;;;;;40.90;16.92;;;;;;;;;;5073900;28;20570;-71
2020/12/19 05:09:41;;;;;;;37.55;16.90;;;;;;;;;;5072695;28;20044;-73
2020/12/19 05:12:08;;;;;;;35.45;16.38;;;;;;;;;;5073538;28;20017;-71
2020/12/19 05:14:33;;;;;;;33.65;15.23;;;;;;;;;;5073084;28;20031;-71
2020/12/19 05:16:59;;;;;;;38.65;16.85;;;;;;;;;;5072286;28;20473;-71
2020/12/19 05:19:26;;;;;;;34.13;14.88;;;;;;;;;;5073768;28;20023;-71
2020/12/19 05:21:53;;;;;;;31.98;14.98;;;;;;;;;;5073343;28;20070;-71
2020/12/19 05:24:18;;;;;;;39.10;16.08;;;;;;;;;;5055515;28;20115;-71
2020/12/19 05:26:44;;;;;;;37.60;16.15;;;;;;;;;;5073457;28;20108;-72
2020/12/19 05:29:10;;;;;;;34.05;16.17;;;;;;;;;;5072440;28;20461;-71
2020/12/19 05:31:35;;;;;;;42.03;16.67;;;;;;;;;;5072126;28;20450;-72
2020/12/19 05:34:01;;;;;;;32.53;14.85;;;;;;;;;;5055201;28;20062;-72
2020/12/19 05:36:28;;;;;;;34.40;16.13;;;;;;;;;;5072990;28;20045;-72
2020/12/19 05:38:58;;;;;;;31.52;15.98;;;;;;;;;;5071853;28;20035;-72
2020/12/19 05:41:24;;;;;;;35.85;16.23;;;;;;;;;;5072005;28;20024;-71
2020/12/19 05:43:50;;;;;;;37.47;15.18;;;;;;;;;;5072980;28;20492;-72
2020/12/19 05:46:25;;;;;;;31.50;15.13;;;;;;;;;;5071181;28;20016;-72
2020/12/19 05:48:50;;;;;;;33.22;15.32;;;;;;;;;;5073375;28;20020;-72
2020/12/19 05:51:16;;;;;;;31.95;14.38;;;;;;;;;;5071660;28;20020;-72
2020/12/19 05:53:42;;;;;;;25.63;13.32;;;;;;;;;;5071821;28;20093;-74
2020/12/19 05:56:07;;;;;;;30.05;14.50;;;;;;;;;;5071661;28;20099;-73
2020/12/19 05:58:33;;;;;;;28.50;14.25;;;;;;;;;;5073297;28;20538;-73
2020/12/19 06:00:59;;;;;;;34.33;15.07;;;;;;;;;;5072785;28;20416;-72
2020/12/19 06:03:25;;;;;;;29.25;13.50;;;;;;;;;;5054972;28;20020;-72
2020/12/19 06:05:51;;;;;;;27.77;12.98;;;;;;;;;;5071347;28;20028;-72
2020/12/19 06:08:20;;;;;;;28.15;13.10;;;;;;;;;;5054312;28;20021;-71
2020/12/19 06:10:45;;;;;;;;;;;;;;;;;;5071727;28;20449;-72
2020/12/19 06:13:14;;;;;;;25.63;12.27;;;;;;;;;;5072818;28;19943;-72
2020/12/19 06:15:47;;;;;;;24.52;12.98;;;;;;;;;;5072039;28;20318;-73
2020/12/19 06:18:19;;;;;;;27.95;13.32;;;;;;;;;;5072291;28;20036;-71
2020/12/19 06:20:44;;;;;;;29.85;15.05;;;;;;;;;;5072636;28;20044;-71
2020/12/19 06:23:20;;;;;;;33.38;14.50;;;;;;;;;;5072687;28;20052;-71
2020/12/19 06:25:46;;;;;;;28.45;13.80;;;;;;;;;;5072604;28;20070;-71
2020/12/19 06:28:14;;;;;;;31.75;14.43;;;;;;;;;;5072483;28;20105;-71
2020/12/19 06:30:39;;;;;;;33.50;15.35;;;;;;;;;;5072410;28;20107;-73
2020/12/19 06:33:09;;;;;;;31.90;14.60;;;;;;;;;;5071129;28;20099;-72
2020/12/19 06:35:34;;;;;;;30.95;14.55;;;;;;;;;;5072802;28;20024;-72
2020/12/19 06:37:59;;;;;;;34.08;14.77;;;;;;;;;;5053924;28;20059;-72
2020/12/19 06:40:25;;;;;;;28.27;13.63;;;;;;;;;;5071193;28;20021;-71
2020/12/19 06:43:08;;;;;;;37.95;19.25;;;;;;;;;;5072357;28;20021;-72
2020/12/19 06:45:34;;;;;;;34.00;15.98;;;;;;;;;;5071755;28;20043;-71
2020/12/19 06:48:00;;;;;;;31.95;15.07;;;;;;;;;;5072085;28;20024;-72
2020/12/19 06:50:45;;;;;;;35.78;18.98;;;;;;;;;;5072463;28;20028;-72
2020/12/19 06:53:14;;;;;;;36.25;14.25;;;;;;;;;;5071454;28;20091;-73
2020/12/19 06:55:40;;;;;;;34.13;14.02;;;;;;;;;;5072286;28;20030;-73
2020/12/19 06:58:05;;;;;;;30.77;14.65;;;;;;;;;;5071884;28;20549;-72
2020/12/19 07:00:31;;;;;;;34.55;15.13;;;;;;;;;;5072207;28;20427;-72
2020/12/19 07:02:58;;;;;;;39.08;16.17;;;;;;;;;;5054189;28;20059;-71
2020/12/19 07:05:25;;;;;;;38.95;18.27;;;;;;;;;;5072485;28;20050;-71
2020/12/19 07:07:51;;;;;;;39.53;16.67;;;;;;;;;;5070930;28;20093;-71
2020/12/19 07:10:31;;;;;;;34.08;16.02;;;;;;;;;;5053840;28;20021;-71
2020/12/19 07:12:56;;;;;;;38.25;17.75;;;;;;;;;;5071976;28;20059;-71
2020/12/19 07:15:31;;;;;;;32.35;15.20;;;;;;;;;;5071546;28;20047;-71
2020/12/19 07:17:57;;;;;;;32.15;13.98;;;;;;;;;;5071740;28;20063;-71
2020/12/19 07:20:22;;;;;;;33.75;14.77;;;;;;;;;;5075251;28;20045;-71
2020/12/19 07:22:49;;;;;;;36.53;15.75;;;;;;;;;;5074556;28;20020;-71
2020/12/19 07:25:14;;;;;;;37.58;16.52;;;;;;;;;;5057751;28;20032;-71
2020/12/19 07:27:39;;;;;;;47.80;18.33;;;;;;;;;;5075762;28;20020;-73
2020/12/19 07:30:05;;;;;;;41.47;18.38;;;;;;;;;;5074334;28;20016;-71
2020/12/19 07:32:30;;;;;;;35.13;15.82;;;;;;;;;;5075719;28;20389;-72
2020/12/19 07:34:56;;;;;;;39.47;17.10;;;;;;;;;;5057644;28;20016;-72
2020/12/19 07:37:22;;;;;;;36.58;16.77;;;;;;;;;;5074106;28;20049;-71
2020/12/19 07:39:48;;;;;;;42.13;19.55;;;;;;;;;;5074251;28;20143;-71
2020/12/19 07:42:13;;;;;;;36.45;17.08;;;;;;;;;;5074151;28;20024;-71
2020/12/19 07:44:39;;;;;;;40.10;17.88;;;;;;;;;;5073850;28;20100;-72
2020/12/19 07:47:07;;;;;;;33.53;15.38;;;;;;;;;;5075958;28;20012;-71
2020/12/19 07:49:34;;;;;;;36.70;16.38;;;;;;;;;;5074139;28;20476;-71
2020/12/19 07:52:04;;;;;;;45.03;16.25;;;;;;;;;;5075027;28;20047;-72
2020/12/19 07:54:29;;;;;;;27.88;13.95;;;;;;;;;;5074076;28;20507;-72
2020/12/19 07:56:55;;;;;;;27.70;13.27;;;;;;;;;;5057162;28;20048;-72
2020/12/19 07:59:21;;;;;;;26.88;13.57;;;;;;;;;;5073984;28;20096;-71
2020/12/19 08:01:46;;;;;;;30.83;12.77;;;;;;;;;;5073904;28;20115;-71
2020/12/19 08:04:12;;;;;;;30.08;13.95;;;;;;;;;;5074985;28;20074;-71
2020/12/19 08:06:39;;;;;;;30.05;13.25;;;;;;;;;;5073930;28;20015;-71
2020/12/19 08:09:04;;;;;;;25.77;10.88;;;;;;;;;;5074956;28;20021;-71
2020/12/19 08:11:30;;;;;;;26.67;13.45;;;;;;;;;;5074990;28;20023;-71
2020/12/19 08:13:56;;;;;;;29.33;14.02;;;;;;;;;;5074906;28;20483;-71
2020/12/19 08:16:21;;;;;;;25.13;12.00;;;;;;;;;;5074401;28;20024;-71
2020/12/19 08:18:47;;;;;;;27.38;13.13;;;;;;;;;;5074914;28;20405;-72
2020/12/19 08:21:13;;;;;;;22.35;11.85;;;;;;;;;;5074856;28;20017;-73
2020/12/19 08:23:38;;;;;;;25.80;11.90;;;;;;;;;;5073217;28;20020;-72
2020/12/19 08:26:03;;;;;;;23.05;11.25;;;;;;;;;;5074579;28;20036;-72
2020/12/19 08:28:29;;;;;;;24.90;12.95;;;;;;;;;;5074989;28;20388;-72
2020/12/19 08:30:54;;;;;;;26.98;12.00;;;;;;;;;;5074298;28;20020;-71
2020/12/19 08:33:22;;;;;;;22.15;9.85;;;;;;;;;;5073630;28;20019;-71
2020/12/19 08:35:48;;;;;;;20.00;9.95;;;;;;;;;;5073543;28;20033;-72
2020/12/19 08:38:19;;;;;;;23.55;10.27;;;;;;;;;;5072617;28;20128;-71
2020/12/19 08:40:47;;;;;;;21.48;11.38;;;;;;;;;;5073429;28;20048;-72
2020/12/19 08:43:13;;;;;;;23.70;10.85;;;;;;;;;;5074396;28;20016;-72
2020/12/19 08:45:41;;;;;;;25.05;10.43;;;;;;;;;;5072732;28;20024;-72
2020/12/19 08:48:09;;;;;;;25.67;10.48;;;;;;;;;;5074024;28;20058;-72
2020/12/19 08:50:37;;;;;;;18.20;9.85;;;;;;;;;;5074201;28;20534;-72
2020/12/19 08:53:03;;;;;;;14.82;7.95;;;;;;;;;;5073918;28;20020;-73
2020/12/19 08:55:28;;;;;;;22.85;9.20;;;;;;;;;;5073130;28;20016;-72
2020/12/19 08:57:54;;;;;;;18.95;9.63;;;;;;;;;;5073943;28;20054;-72
2020/12/19 09:00:19;;;;;;;19.15;9.75;;;;;;;;;;5073896;28;20070;-72
2020/12/19 09:02:45;;;;;;;21.23;10.15;;;;;;;;;;5073891;28;20024;-72
2020/12/19 09:05:11;;;;;;;20.98;9.60;;;;;;;;;;5072745;28;20373;-71
2020/12/19 09:07:36;;;;;;;26.58;10.38;;;;;;;;;;5073775;28;20020;-72
2020/12/19 09:10:12;;;;;;;22.58;11.65;;;;;;;;;;5055698;28;20082;-72
2020/12/19 09:12:37;;;;;;;23.77;11.02;;;;;;;;;;5073864;28;20480;-73
2020/12/19 09:15:14;;;;;;;27.67;12.23;;;;;;;;;;5073055;28;20020;-72
2020/12/19 09:17:40;;;;;;;23.77;11.63;;;;;;;;;;5073551;28;20025;-73
2020/12/19 09:20:05;;;;;;;21.17;11.18;;;;;;;;;;5072145;28;20074;-72
2020/12/19 09:22:33;;;;;;;21.75;10.48;;;;;;;;;;5073730;28;20021;-72
2020/12/19 09:24:58;;;;;;;29.95;10.98;;;;;;;;;;5073338;28;20021;-72
2020/12/19 09:27:23;;;;;;;18.42;9.00;;;;;;;;;;5072465;28;20384;-72
2020/12/19 09:29:49;;;;;;;12.85;7.55;;;;;;;;;;5055520;28;20020;-72
2020/12/19 09:32:14;;;;;;;16.20;7.72;;;;;;;;;;5073129;28;20377;-72
2020/12/19 09:34:40;;;;;;;14.75;7.65;;;;;;;;;;5072003;28;20030;-73
2020/12/19 09:37:05;;;;;;;13.80;6.68;;;;;;;;;;5072969;28;20048;-73
2020/12/19 09:39:31;;;;;;;13.02;6.75;;;;;;;;;;5073334;28;20423;-73
2020/12/19 09:41:57;;;;;;;13.13;6.75;;;;;;;;;;5072362;28;20017;-72
2020/12/19 09:44:23;;;;;;;20.90;8.88;;;;;;;;;;5055778;28;20025;-72
2020/12/19 09:46:49;;;;;;;15.25;8.52;;;;;;;;;;5072493;28;20017;-72
2020/12/19 09:49:14;;;;;;;14.77;7.40;;;;;;;;;;5073045;28;20081;-72
2020/12/19 09:51:41;;;;;;;13.75;6.97;;;;;;;;;;5071974;28;20407;-73
2020/12/19 09:54:06;;;;;;;15.88;7.82;;;;;;;;;;5072743;28;20096;-72
2020/12/19 09:56:41;;;;;;;15.40;8.18;;;;;;;;;;5073005;28;20095;-72
2020/12/19 09:59:06;;;;;;;19.20;9.82;;;;;;;;;;5072944;28;20012;-72
2020/12/19 10:01:32;;;;;;;19.50;9.18;;;;;;;;;;5072960;28;20016;-72
2020/12/19 10:03:57;;;;;;;17.98;9.02;;;;;;;;;;5072688;28;20019;-71
2020/12/19 10:06:22;;;;;;;19.30;8.07;;;;;;;;;;5071726;28;20031;-72
2020/12/19 10:08:48;;;;;;;17.35;9.32;;;;;;;;;;5071667;28;20044;-72
2020/12/19 10:11:13;;;;;;;19.60;8.55;;;;;;;;;;5071600;28;20384;-72
2020/12/19 10:13:39;;;;;;;24.88;10.10;;;;;;;;;;5071482;28;20016;-73
2020/12/19 10:16:04;;;;;;;19.70;10.02;;;;;;;;;;5071739;28;20055;-72
2020/12/19 10:18:30;;;;;;;29.33;10.57;;;;;;;;;;5071543;28;20037;-72
2020/12/19 10:20:55;;;;;;;23.10;10.25;;;;;;;;;;5071310;28;20055;-72
2020/12/19 10:23:20;;;;;;;22.42;9.77;;;;;;;;;;5054756;28;20362;-71
2020/12/19 10:25:46;;;;;;;26.20;11.55;;;;;;;;;;5054615;28;20526;-72
2020/12/19 10:28:11;;;;;;;21.67;11.25;;;;;;;;;;5071400;28;20024;-72
2020/12/19 10:30:37;;;;;;;26.02;12.15;;;;;;;;;;5071389;28;20017;-72
2020/12/19 10:33:02;;;;;;;26.80;12.88;;;;;;;;;;5072293;28;20474;-71
2020/12/19 10:35:27;;;;;;;24.13;11.40;;;;;;;;;;5071265;28;20055;-72
2020/12/19 10:37:53;;;;;;;27.08;11.82;;;;;;;;;;5072178;28;20419;-72
2020/12/19 10:40:18;;;;;;;23.17;11.07;;;;;;;;;;5071006;28;20445;-71
2020/12/19 10:42:44;;;;;;;30.75;13.00;;;;;;;;;;5071097;28;20021;-72
2020/12/19 10:45:09;;;;;;;27.77;12.30;;;;;;;;;;5070579;28;20013;-71
2020/12/19 10:47:34;;;;;;;26.50;12.75;;;;;;;;;;5071198;28;20530;-71
2020/12/19 10:50:00;;;;;;;23.90;10.77;;;;;;;;;;5070775;28;20045;-72
2020/12/19 10:52:25;;;;;;;25.13;12.32;;;;;;;;;;5072340;28;20020;-73
2020/12/19 10:54:51;;;;;;;23.70;11.02;;;;;;;;;;5076293;28;20115;-72
2020/12/19 10:57:16;;;;;;;25.52;10.77;;;;;;;;;;5075053;28;20051;-72
2020/12/19 10:59:41;;;;;;;28.92;11.98;;;;;;;;;;5075071;28;20351;-72
2020/12/19 11:02:07;;;;;;;30.17;13.32;;;;;;;;;;5075921;28;20024;-71
2020/12/19 11:04:32;;;;;;;23.92;10.98;;;;;;;;;;5076174;28;20381;-71
2020/12/19 11:06:58;;;;;;;23.15;11.25;;;;;;;;;;5074955;28;20017;-71
2020/12/19 11:09:23;;;;;;;24.95;11.00;;;;;;;;;;5076300;28;20026;-71
2020/12/19 11:11:50;;;;;;;24.63;12.43;;;;;;;;;;5076001;28;20012;-71
2020/12/19 11:14:16;;;;;;;25.52;12.05;;;;;;;;;;5074855;28;20099;-71
2020/12/19 11:16:41;;;;;;;22.27;10.90;;;;;;;;;;5074206;28;20100;-73
2020/12/19 11:19:09;;;;;;;26.77;12.55;;;;;;;;;;5076080;28;20012;-71
2020/12/19 11:21:40;;;;;;;26.70;11.77;;;;;;;;;;5076271;28;20043;-71
2020/12/19 11:24:05;;;;;;;26.52;12.30;;;;;;;;;;5075738;28;20020;-70
2020/12/19 11:26:32;;;;;;;21.77;10.57;;;;;;;;;;5076173;28;20027;-71
2020/12/19 11:28:57;;;;;;;24.90;11.60;;;;;;;;;;5075592;28;20024;-71
2020/12/19 11:31:25;;;;;;;23.52;11.18;;;;;;;;;;5057797;28;20079;-71
2020/12/19 11:33:51;;;;;;;17.60;9.02;;;;;;;;;;5075592;28;20430;-71
2020/12/19 11:36:16;;;;;;;15.30;8.43;;;;;;;;;;5075247;28;20056;-71
2020/12/19 11:38:41;;;;;;;17.27;8.80;;;;;;;;;;5075395;28;20028;-71
2020/12/19 11:41:07;;;;;;;20.42;9.77;;;;;;;;;;5074413;28;20107;-70
2020/12/19 11:43:32;;;;;;;22.25;10.80;;;;;;;;;;5074800;28;20384;-71
2020/12/19 11:45:57;;;;;;;22.73;11.00;;;;;;;;;;5074557;28;20024;-72
2020/12/19 11:48:23;;;;;;;23.60;11.15;;;;;;;;;;5075418;28;20056;-71
2020/12/19 11:50:48;;;;;;;23.35;12.40;;;;;;;;;;5075605;28;20054;-72
2020/12/19 11:53:14;;;;;;;20.38;10.13;;;;;;;;;;5075223;28;20435;-72
2020/12/19 11:55:39;;;;;;;16.88;9.13;;;;;;;;;;5074093;28;20016;-72
2020/12/19 11:58:04;;;;;;;20.23;10.55;;;;;;;;;;5056843;28;20057;-71
2020/12/19 12:00:30;;;;;;;16.55;8.60;;;;;;;;;;5074014;28;20032;-70
2020/12/19 12:02:55;;;;;;;21.65;10.98;;;;;;;;;;5074794;28;20059;-70
2020/12/19 12:05:21;;;;;;;25.10;12.05;;;;;;;;;;5073203;28;20450;-70
2020/12/19 12:07:46;;;;;;;20.23;10.25;;;;;;;;;;5074996;28;20017;-70
2020/12/19 12:10:12;;;;;;;18.17;9.52;;;;;;;;;;5073514;28;21035;-70
2020/12/19 12:12:37;;;;;;;19.13;10.18;;;;;;;;;;5073757;28;20024;-71
2020/12/19 12:15:03;;;;;;;22.10;10.98;;;;;;;;;;5074223;28;20016;-70
2020/12/19 12:17:28;;;;;;;20.85;9.73;;;;;;;;;;5056986;28;20020;-70
2020/12/19 12:19:53;;;;;;;14.07;8.55;;;;;;;;;;5074550;28;20089;-71
2020/12/19 12:22:19;;;;;;;16.50;8.57;;;;;;;;;;5074717;28;20033;-70
2020/12/19 12:24:44;;;;;;;22.08;10.63;;;;;;;;;;5073500;28;20052;-70
2020/12/19 12:27:11;;;;;;;27.55;12.32;;;;;;;;;;5073403;28;20028;-70
2020/12/19 12:29:36;;;;;;;21.50;11.48;;;;;;;;;;5074599;28;20024;-71
2020/12/19 12:32:04;;;;;;;21.73;11.63;;;;;;;;;;5074506;28;20026;-70
2020/12/19 12:34:30;;;;;;;21.63;11.75;;;;;;;;;;5073420;28;20055;-70
2020/12/19 12:36:55;;;;;;;29.10;14.32;;;;;;;;;;5074171;28;20056;-70
2020/12/19 12:39:20;;;;;;;32.90;13.88;;;;;;;;;;5073593;28;20036;-70
2020/12/19 12:41:46;;;;;;;28.00;13.32;;;;;;;;;;5074405;28;20095;-70
2020/12/19 12:44:11;;;;;;;19.17;10.90;;;;;;;;;;5056450;28;20360;-70
2020/12/19 12:46:37;;;;;;;23.95;11.85;;;;;;;;;;5072580;28;20498;-71
2020/12/19 12:49:02;;;;;;;31.80;12.75;;;;;;;;;;5072916;28;20030;-71
2020/12/19 12:51:28;;;;;;;18.65;10.65;;;;;;;;;;5056433;28;20107;-72
2020/12/19 12:53:53;;;;;;;22.45;12.48;;;;;;;;;;5074186;28;20030;-71
2020/12/19 12:56:22;;;;;;;31.23;14.38;;;;;;;;;;5074292;28;20051;-71
2020/12/19 12:58:48;;;;;;;;;;;;;;;;;;5074424;28;20047;-70
2020/12/19 13:01:13;;;;;;;31.40;14.95;;;;;;;;;;5074085;28;19904;-70
2020/12/19 13:03:38;;;;;;;28.60;15.80;;;;;;;;;;5073970;28;20023;-70
2020/12/19 13:06:04;;;;;;;28.77;15.10;;;;;;;;;;5073732;28;20012;-69
2020/12/19 13:08:29;;;;;;;28.88;11.80;;;;;;;;;;5056239;28;20079;-69
2020/12/19 13:10:55;;;;;;;29.55;12.88;;;;;;;;;;5072919;28;20064;-71
2020/12/19 13:13:20;;;;;;;23.40;12.38;;;;;;;;;;5072812;28;20025;-70
2020/12/19 13:15:46;;;;;;;22.35;12.68;;;;;;;;;;5071769;28;20020;-70
2020/12/19 13:18:12;;;;;;;22.58;12.52;;;;;;;;;;5054603;28;20484;-69
2020/12/19 13:20:37;;;;;;;25.27;12.60;;;;;;;;;;5073621;28;20415;-72
2020/12/19 13:23:03;;;;;;;22.75;12.85;;;;;;;;;;5072370;28;20016;-70
2020/12/19 13:25:28;;;;;;;27.42;13.30;;;;;;;;;;5073933;28;20048;-70
2020/12/19 13:27:54;;;;;;;22.95;12.20;;;;;;;;;;5073503;28;20017;-70
2020/12/19 13:30:20;;;;;;;26.25;14.35;;;;;;;;;;5073289;28;20058;-70
2020/12/19 13:32:45;;;;;;;32.80;16.65;;;;;;;;;;5072215;28;20016;-70
2020/12/19 13:35:11;;;;;;;27.40;14.75;;;;;;;;;;5072009;28;20056;-71
2020/12/19 13:37:37;;;;;;;54.60;19.60;;;;;;;;;;5073051;28;20051;-73
2020/12/19 13:40:03;;;;;;;64.88;23.73;;;;;;;;;;5055468;28;20372;-71
2020/12/19 13:42:32;;;;;;;51.65;22.33;;;;;;;;;;5073376;28;20476;-72
2020/12/19 13:44:58;;;;;;;47.17;24.20;;;;;;;;;;5072434;28;20484;-71
2020/12/19 13:47:23;;;;;;;41.05;20.70;;;;;;;;;;5073404;28;20059;-72
2020/12/19 13:49:48;;;;;;;37.20;18.00;;;;;;;;;;5071936;28;20052;-72
2020/12/19 13:52:14;;;;;;;45.83;20.63;;;;;;;;;;5072852;28;20016;-72
2020/12/19 13:54:40;;;;;;;44.85;20.05;;;;;;;;;;5073022;28;20077;-73
2020/12/19 13:57:05;;;;;;;42.85;19.67;;;;;;;;;;5072964;28;20120;-72
2020/12/19 13:59:30;;;;;;;33.40;16.55;;;;;;;;;;5073132;28;20385;-71
2020/12/19 14:01:56;;;;;;;54.72;21.52;;;;;;;;;;5072628;28;20469;-71
2020/12/19 14:04:21;;;;;;;50.47;20.85;;;;;;;;;;5071323;28;20009;-71
2020/12/19 14:06:47;;;;;;;50.63;23.77;;;;;;;;;;5071654;28;20063;-71
2020/12/19 14:09:13;;;;;;;68.68;29.77;;;;;;;;;;5071866;28;20492;-71
2020/12/19 14:11:39;;;;;;;104.25;42.38;;;;;;;;;;5072844;28;20020;-73